KMRN/MRN METAR and TAF weather

Enter ICAO airport designator
Station Type Date Time Source
KMRN METAR 2019/10/23 11:55 UTC NOAA

KMRN 231155Z AUTO 30003KT 10SM CLR 09/00 A3015 RMK AO2 70038 T00931002 10121 20072


Station Type Date Time Source
KMRN Decoded METAR 2019/10/23 11:55 UTC NOAA

Morganton, Morganton-Lenoir Airport, NC, United States (KMRN) 35-49-17N 081-36-39W
Oct 23, 2019 - 07:55 AM EDT / 2019.10.23 1155 UTC
Wind: from the WNW (300 degrees) at 3 MPH (3 KT):0
Visibility: 10 mile(s):0
Sky conditions: clear
Temperature: 48.7 F (9.3 C)
Dew Point: 31.6 F (-0.2 C)
Relative Humidity: 51%
Pressure (altimeter): 30.15 in. Hg (1020 hPa)
ob: KMRN 231155Z AUTO 30003KT 10SM CLR 09/00 A3015 RMK AO2 70038 T00931002 10121 20072
cycle: 12

Station Type Date Time Source
KMRN TAF UTC NOAA

Error!

Example: see airport list